Lamont, Mississippi
Current Conditions -  °F | °C
As of 12:53 AM on Monday 24 Nov 2014 (Local Time) from KGLH Reporting Station
Clear Clear  
Wind Chill: 62°   Ceiling: Unl
Heat Index: 62°   Visibility: 10mi
Dew Point: 54°   Wind: 23mph
Humidity: 75%   Direction: 240°WSW
Pressure: 29.55"   Gusts: 31mph
Location:  33.2777°N, 90.9989°W
Report Text: KGLH 240653Z AUTO 24020G27KT 10SM CLR 17/12 A2955 RMK AO2 PK WND 24027/0653 SLP015 T01670122 $
Loading
Personal Weather Stations






























Interactive Weather Map New forecast layout! Learn more

10-Day Weather Forecast

Advertisements
Track Severe Weather on mobile